Strathdon, United Kingdom
Current Conditions -  °F | °C
As of 8:50 AM on Saturday 22 Nov 2014 (Local Time) from EGPD Reporting Station
Light Rain Light Rain  
Wind Chill: 50°   Ceiling: 500
Heat Index: 50°   Visibility: 3mi
Dew Point: 48°   Wind: 14mph
Humidity: 94%   Direction: 140°SE
Pressure: 29.74"   Gusts: NA
Location:  57.2°N, 3.03°W
Report Text: EGPD 220850Z 14012KT 5000 -RA BKN005 BKN008 10/09 Q1007 RERA TEMPO 6000 BKN007
Loading
Personal Weather Stations






























Interactive Weather Map New forecast layout! Learn more

10-Day Weather Forecast

Advertisements
Track Severe Weather on mobile